METAR Data
IDs: Format: Raw Decoded Include TAF

Data at: 0129 UTC 25 Feb 2021

LFBE 250100Z AUTO 05005KT CAVOK 07/06 Q1027